sensor_id;sensor_type;location;lat;lon;timestamp;pressure;altitude;pressure_sealevel;temperature;humidity
71476;BME280;59286;59.274;17.974;2022-08-18T00:00:32;101075.56;;;18.83;86.05
71476;BME280;59286;59.274;17.974;2022-08-18T00:03:05;101087.03;;;18.87;86.51
71476;BME280;59286;59.274;17.974;2022-08-18T00:05:32;101062.78;;;18.61;86.31
71476;BME280;59286;59.274;17.974;2022-08-18T00:07:58;101073.41;;;18.61;86.46
71476;BME280;59286;59.274;17.974;2022-08-18T00:10:24;101069.44;;;18.55;86.11
71476;BME280;59286;59.274;17.974;2022-08-18T00:12:50;101087.34;;;18.70;84.99
71476;BME280;59286;59.274;17.974;2022-08-18T00:15:17;101088.78;;;18.68;85.89
71476;BME280;59286;59.274;17.974;2022-08-18T00:17:43;101084.56;;;18.67;85.32
71476;BME280;59286;59.274;17.974;2022-08-18T00:20:13;101082.03;;;18.58;86.74
71476;BME280;59286;59.274;17.974;2022-08-18T00:22:39;101091.34;;;18.52;86.50
71476;BME280;59286;59.274;17.974;2022-08-18T00:25:06;101078.22;;;18.44;85.99
71476;BME280;59286;59.274;17.974;2022-08-18T00:27:34;101068.44;;;18.35;86.59
71476;BME280;59286;59.274;17.974;2022-08-18T00:30:05;101086.81;;;18.53;87.14
71476;BME280;59286;59.274;17.974;2022-08-18T00:32:33;101087.94;;;18.52;88.01
71476;BME280;59286;59.274;17.974;2022-08-18T00:37:52;101085.38;;;18.55;85.28
71476;BME280;59286;59.274;17.974;2022-08-18T00:40:25;101053.28;;;18.36;85.54
71476;BME280;59286;59.274;17.974;2022-08-18T00:42:55;101093.56;;;18.50;85.72
71476;BME280;59286;59.274;17.974;2022-08-18T00:45:37;101058.16;;;18.22;85.97
71476;BME280;59286;59.274;17.974;2022-08-18T00:48:05;101089.34;;;18.37;85.50
71476;BME280;59286;59.274;17.974;2022-08-18T00:50:35;101080.53;;;18.21;86.25
71476;BME280;59286;59.274;17.974;2022-08-18T00:53:08;101084.06;;;18.13;87.31
71476;BME280;59286;59.274;17.974;2022-08-18T00:55:37;101073.91;;;18.03;86.72
71476;BME280;59286;59.274;17.974;2022-08-18T00:58:19;101076.66;;;17.94;87.78
71476;BME280;59286;59.274;17.974;2022-08-18T01:00:48;101076.19;;;17.92;86.59
71476;BME280;59286;59.274;17.974;2022-08-18T01:03:16;101075.44;;;17.92;87.10
71476;BME280;59286;59.274;17.974;2022-08-18T01:06:15;101106.94;;;18.17;86.75
71476;BME280;59286;59.274;17.974;2022-08-18T01:08:41;101081.63;;;17.96;86.77
71476;BME280;59286;59.274;17.974;2022-08-18T01:11:07;101100.31;;;17.99;87.60
71476;BME280;59286;59.274;17.974;2022-08-18T01:13:35;101094.66;;;17.89;87.73
71476;BME280;59286;59.274;17.974;2022-08-18T01:16:03;101123.94;;;17.92;87.83
71476;BME280;59286;59.274;17.974;2022-08-18T01:18:48;101121.06;;;17.85;87.53
71476;BME280;59286;59.274;17.974;2022-08-18T01:21:35;101123.50;;;17.90;86.02
71476;BME280;59286;59.274;17.974;2022-08-18T01:24:20;101098.84;;;17.78;86.48
71476;BME280;59286;59.274;17.974;2022-08-18T01:27:08;101087.22;;;17.70;86.20
71476;BME280;59286;59.274;17.974;2022-08-18T01:29:34;101093.31;;;17.71;86.94
71476;BME280;59286;59.274;17.974;2022-08-18T01:32:01;101134.91;;;17.91;86.06
71476;BME280;59286;59.274;17.974;2022-08-18T01:34:27;101108.56;;;17.74;85.77
71476;BME280;59286;59.274;17.974;2022-08-18T01:36:53;101112.56;;;17.80;85.03
71476;BME280;59286;59.274;17.974;2022-08-18T01:39:20;101090.88;;;17.66;85.82
71476;BME280;59286;59.274;17.974;2022-08-18T01:41:45;101100.72;;;17.65;88.14
71476;BME280;59286;59.274;17.974;2022-08-18T01:44:12;101087.53;;;17.57;86.59
71476;BME280;59286;59.274;17.974;2022-08-18T01:46:39;101109.78;;;17.76;86.72
71476;BME280;59286;59.274;17.974;2022-08-18T01:49:07;101121.94;;;17.77;88.26
71476;BME280;59286;59.274;17.974;2022-08-18T01:51:33;101103.03;;;17.67;86.38
71476;BME280;59286;59.274;17.974;2022-08-18T01:53:59;101136.66;;;17.87;87.21
71476;BME280;59286;59.274;17.974;2022-08-18T01:56:25;101127.78;;;17.83;86.29
71476;BME280;59286;59.274;17.974;2022-08-18T01:58:52;101123.38;;;17.87;86.52
71476;BME280;59286;59.274;17.974;2022-08-18T02:01:18;101131.56;;;17.82;86.97
71476;BME280;59286;59.274;17.974;2022-08-18T02:03:47;101118.72;;;17.72;87.00
71476;BME280;59286;59.274;17.974;2022-08-18T02:06:15;101126.94;;;17.79;87.07
71476;BME280;59286;59.274;17.974;2022-08-18T02:08:44;101097.38;;;17.56;86.66
71476;BME280;59286;59.274;17.974;2022-08-18T02:11:10;101127.69;;;17.79;87.42
71476;BME280;59286;59.274;17.974;2022-08-18T02:13:37;101129.88;;;17.77;88.05
71476;BME280;59286;59.274;17.974;2022-08-18T02:16:03;101142.97;;;17.82;87.04
71476;BME280;59286;59.274;17.974;2022-08-18T02:18:32;101144.16;;;17.73;87.76
71476;BME280;59286;59.274;17.974;2022-08-18T02:21:04;101120.06;;;17.66;86.76
71476;BME280;59286;59.274;17.974;2022-08-18T02:23:30;101102.81;;;17.60;86.71
71476;BME280;59286;59.274;17.974;2022-08-18T02:25:55;101116.41;;;17.70;86.46
71476;BME280;59286;59.274;17.974;2022-08-18T02:28:21;101111.44;;;17.69;86.36
71476;BME280;59286;59.274;17.974;2022-08-18T02:30:46;101096.81;;;17.63;87.68
71476;BME280;59286;59.274;17.974;2022-08-18T02:33:11;101105.13;;;17.61;87.45
71476;BME280;59286;59.274;17.974;2022-08-18T02:35:37;101085.09;;;17.52;86.81
71476;BME280;59286;59.274;17.974;2022-08-18T02:38:05;101099.94;;;17.65;87.56
71476;BME280;59286;59.274;17.974;2022-08-18T02:40:32;101082.00;;;17.50;87.52
71476;BME280;59286;59.274;17.974;2022-08-18T02:42:58;101110.31;;;17.70;87.03
71476;BME280;59286;59.274;17.974;2022-08-18T02:45:24;101083.28;;;17.43;86.87
71476;BME280;59286;59.274;17.974;2022-08-18T02:47:53;101108.97;;;17.52;87.50
71476;BME280;59286;59.274;17.974;2022-08-18T02:50:19;101111.38;;;17.57;87.22
71476;BME280;59286;59.274;17.974;2022-08-18T02:52:45;101096.38;;;17.49;86.25
71476;BME280;59286;59.274;17.974;2022-08-18T02:55:11;101114.19;;;17.60;86.32
71476;BME280;59286;59.274;17.974;2022-08-18T02:57:43;101100.28;;;17.42;86.22
71476;BME280;59286;59.274;17.974;2022-08-18T03:00:12;101083.34;;;17.23;87.11
71476;BME280;59286;59.274;17.974;2022-08-18T03:02:39;101086.06;;;17.14;87.72
71476;BME280;59286;59.274;17.974;2022-08-18T03:05:05;101115.25;;;17.26;87.90
71476;BME280;59286;59.274;17.974;2022-08-18T03:07:31;101136.03;;;17.36;87.66
71476;BME280;59286;59.274;17.974;2022-08-18T03:09:57;101117.47;;;17.24;88.13
71476;BME280;59286;59.274;17.974;2022-08-18T03:12:22;101083.28;;;17.11;86.74
71476;BME280;59286;59.274;17.974;2022-08-18T03:14:49;101104.78;;;17.30;86.70
71476;BME280;59286;59.274;17.974;2022-08-18T03:17:14;101103.88;;;17.26;86.78
71476;BME280;59286;59.274;17.974;2022-08-18T03:19:40;101110.72;;;17.27;87.15
71476;BME280;59286;59.274;17.974;2022-08-18T03:22:09;101112.63;;;17.26;86.86
71476;BME280;59286;59.274;17.974;2022-08-18T03:24:34;101115.91;;;17.23;87.42
71476;BME280;59286;59.274;17.974;2022-08-18T03:27:03;101120.22;;;17.28;87.86
71476;BME280;59286;59.274;17.974;2022-08-18T03:29:30;101118.09;;;17.21;86.35
71476;BME280;59286;59.274;17.974;2022-08-18T03:31:55;101119.66;;;17.22;86.60
71476;BME280;59286;59.274;17.974;2022-08-18T03:34:21;101148.44;;;17.44;86.58
71476;BME280;59286;59.274;17.974;2022-08-18T03:36:48;101117.34;;;17.21;87.55
71476;BME280;59286;59.274;17.974;2022-08-18T03:39:14;101143.81;;;17.41;86.63
71476;BME280;59286;59.274;17.974;2022-08-18T03:41:42;101149.53;;;17.43;87.10
71476;BME280;59286;59.274;17.974;2022-08-18T03:44:09;101138.91;;;17.31;86.94
71476;BME280;59286;59.274;17.974;2022-08-18T03:46:35;101115.53;;;17.13;86.97
71476;BME280;59286;59.274;17.974;2022-08-18T03:49:00;101151.25;;;17.27;87.10
71476;BME280;59286;59.274;17.974;2022-08-18T03:51:30;101107.78;;;17.08;86.49
71476;BME280;59286;59.274;17.974;2022-08-18T03:53:59;101125.81;;;17.14;87.78
71476;BME280;59286;59.274;17.974;2022-08-18T03:56:30;101151.31;;;17.39;86.73
71476;BME280;59286;59.274;17.974;2022-08-18T03:59:00;101136.38;;;17.35;87.05
71476;BME280;59286;59.274;17.974;2022-08-18T04:01:28;101161.53;;;17.50;87.31
71476;BME280;59286;59.274;17.974;2022-08-18T04:03:57;101162.44;;;17.54;88.01
71476;BME280;59286;59.274;17.974;2022-08-18T04:06:26;101116.59;;;17.32;86.74
71476;BME280;59286;59.274;17.974;2022-08-18T04:08:53;101119.06;;;17.37;85.96
71476;BME280;59286;59.274;17.974;2022-08-18T04:11:19;101121.16;;;17.44;86.76
71476;BME280;59286;59.274;17.974;2022-08-18T04:13:44;101168.34;;;17.71;87.03
71476;BME280;59286;59.274;17.974;2022-08-18T04:16:10;101135.41;;;17.60;86.09
71476;BME280;59286;59.274;17.974;2022-08-18T04:18:36;101128.25;;;17.73;86.05
71476;BME280;59286;59.274;17.974;2022-08-18T04:21:03;101170.72;;;17.97;86.16
71476;BME280;59286;59.274;17.974;2022-08-18T04:23:31;101150.81;;;17.79;87.58
71476;BME280;59286;59.274;17.974;2022-08-18T04:25:58;101140.50;;;17.77;87.92
71476;BME280;59286;59.274;17.974;2022-08-18T04:28:24;101181.22;;;18.05;88.29
71476;BME280;59286;59.274;17.974;2022-08-18T04:30:51;101127.16;;;17.86;87.89
71476;BME280;59286;59.274;17.974;2022-08-18T04:33:16;101185.69;;;18.37;87.13
71476;BME280;59286;59.274;17.974;2022-08-18T04:35:42;101152.19;;;18.33;86.44
71476;BME280;59286;59.274;17.974;2022-08-18T04:38:08;101185.16;;;18.68;85.50
71476;BME280;59286;59.274;17.974;2022-08-18T04:40:35;101184.78;;;18.82;85.08
71476;BME280;59286;59.274;17.974;2022-08-18T04:43:01;101147.31;;;18.71;84.56
71476;BME280;59286;59.274;17.974;2022-08-18T04:45:27;101152.38;;;18.88;83.81
71476;BME280;59286;59.274;17.974;2022-08-18T04:47:55;101151.88;;;18.98;84.01
71476;BME280;59286;59.274;17.974;2022-08-18T04:50:22;101174.72;;;19.27;84.16
71476;BME280;59286;59.274;17.974;2022-08-18T04:52:48;101167.31;;;19.33;83.39
71476;BME280;59286;59.274;17.974;2022-08-18T04:55:32;101188.97;;;19.74;82.99
71476;BME280;59286;59.274;17.974;2022-08-18T04:57:58;101197.81;;;19.94;83.01
71476;BME280;59286;59.274;17.974;2022-08-18T05:00:23;101153.53;;;19.86;81.82
71476;BME280;59286;59.274;17.974;2022-08-18T05:02:49;101174.81;;;20.17;80.84
71476;BME280;59286;59.274;17.974;2022-08-18T05:05:14;101158.06;;;20.16;80.51
71476;BME280;59286;59.274;17.974;2022-08-18T05:07:44;101199.31;;;20.54;80.80
71476;BME280;59286;59.274;17.974;2022-08-18T05:10:11;101207.38;;;20.57;79.65
71476;BME280;59286;59.274;17.974;2022-08-18T05:12:37;101202.97;;;20.65;79.47
71476;BME280;59286;59.274;17.974;2022-08-18T05:15:06;101174.81;;;20.48;79.09
71476;BME280;59286;59.274;17.974;2022-08-18T05:17:31;101162.88;;;20.42;78.96
71476;BME280;59286;59.274;17.974;2022-08-18T05:20:00;101192.56;;;20.75;78.61
71476;BME280;59286;59.274;17.974;2022-08-18T05:22:28;101154.72;;;20.51;77.83
71476;BME280;59286;59.274;17.974;2022-08-18T05:24:54;101192.56;;;20.75;77.71
71476;BME280;59286;59.274;17.974;2022-08-18T05:27:21;101173.56;;;20.77;77.56
71476;BME280;59286;59.274;17.974;2022-08-18T05:29:46;101165.66;;;20.80;77.32
71476;BME280;59286;59.274;17.974;2022-08-18T05:32:13;101212.66;;;21.23;76.42
71476;BME280;59286;59.274;17.974;2022-08-18T05:34:38;101190.69;;;21.10;76.06
71476;BME280;59286;59.274;17.974;2022-08-18T05:40:20;101222.56;;;21.42;75.11
71476;BME280;59286;59.274;17.974;2022-08-18T05:42:47;101209.63;;;21.25;75.29
71476;BME280;59286;59.274;17.974;2022-08-18T05:45:16;101208.34;;;21.18;73.72
71476;BME280;59286;59.274;17.974;2022-08-18T05:47:42;101216.94;;;21.28;74.00
71476;BME280;59286;59.274;17.974;2022-08-18T05:50:13;101193.53;;;21.02;74.43
71476;BME280;59286;59.274;17.974;2022-08-18T05:53:01;101222.19;;;21.24;73.74
71476;BME280;59286;59.274;17.974;2022-08-18T05:55:36;101229.69;;;21.18;72.95
71476;BME280;59286;59.274;17.974;2022-08-18T05:58:28;101227.44;;;21.20;72.68
71476;BME280;59286;59.274;17.974;2022-08-18T06:01:00;101205.84;;;21.06;72.56
71476;BME280;59286;59.274;17.974;2022-08-18T06:06:27;101223.03;;;21.28;71.94
71476;BME280;59286;59.274;17.974;2022-08-18T06:09:08;101222.84;;;21.37;70.84
71476;BME280;59286;59.274;17.974;2022-08-18T06:11:34;101227.34;;;21.52;70.27
71476;BME280;59286;59.274;17.974;2022-08-18T06:14:00;101224.66;;;21.52;70.50
71476;BME280;59286;59.274;17.974;2022-08-18T06:17:04;101222.72;;;21.71;69.59
71476;BME280;59286;59.274;17.974;2022-08-18T06:19:49;101245.44;;;21.81;67.46
71476;BME280;59286;59.274;17.974;2022-08-18T06:24:54;101248.72;;;21.93;67.31
71476;BME280;59286;59.274;17.974;2022-08-18T06:28:08;101235.53;;;21.81;66.62
71476;BME280;59286;59.274;17.974;2022-08-18T06:30:22;101219.16;;;21.64;66.77
71476;BME280;59286;59.274;17.974;2022-08-18T06:33:34;101254.75;;;22.09;66.05
71476;BME280;59286;59.274;17.974;2022-08-18T06:40:49;101234.47;;;22.54;61.73
71476;BME280;59286;59.274;17.974;2022-08-18T06:43:25;101252.34;;;22.72;61.54
71476;BME280;59286;59.274;17.974;2022-08-18T06:45:52;101233.13;;;22.63;61.94
71476;BME280;59286;59.274;17.974;2022-08-18T06:48:39;101268.03;;;23.00;60.79
71476;BME280;59286;59.274;17.974;2022-08-18T06:51:07;101237.13;;;23.02;60.80
71476;BME280;59286;59.274;17.974;2022-08-18T06:53:53;101270.13;;;23.40;58.81
71476;BME280;59286;59.274;17.974;2022-08-18T06:56:26;101242.53;;;23.36;58.85
71476;BME280;59286;59.274;17.974;2022-08-18T06:58:53;101253.53;;;23.60;58.29
71476;BME280;59286;59.274;17.974;2022-08-18T07:01:21;101249.34;;;23.63;58.52
71476;BME280;59286;59.274;17.974;2022-08-18T07:03:54;101238.38;;;23.75;57.80
71476;BME280;59286;59.274;17.974;2022-08-18T07:08:48;101276.88;;;24.00;56.93
71476;BME280;59286;59.274;17.974;2022-08-18T07:11:20;101263.84;;;23.95;57.14
71476;BME280;59286;59.274;17.974;2022-08-18T07:13:51;101263.44;;;23.93;57.61
71476;BME280;59286;59.274;17.974;2022-08-18T07:16:37;101256.84;;;23.87;57.08
71476;BME280;59286;59.274;17.974;2022-08-18T07:19:10;101281.38;;;23.89;57.82
71476;BME280;59286;59.274;17.974;2022-08-18T07:21:37;101253.63;;;23.71;58.30
71476;BME280;59286;59.274;17.974;2022-08-18T07:24:29;101284.66;;;24.09;57.73
71476;BME280;59286;59.274;17.974;2022-08-18T07:27:12;101257.16;;;24.15;57.99
71476;BME280;59286;59.274;17.974;2022-08-18T07:29:59;101281.97;;;24.52;56.32
71476;BME280;59286;59.274;17.974;2022-08-18T07:32:31;101276.75;;;24.66;57.02
71476;BME280;59286;59.274;17.974;2022-08-18T07:35:02;101276.56;;;24.45;55.47
71476;BME280;59286;59.274;17.974;2022-08-18T07:37:39;101289.72;;;24.61;54.37
71476;BME280;59286;59.274;17.974;2022-08-18T07:40:29;101294.31;;;24.60;54.75
71476;BME280;59286;59.274;17.974;2022-08-18T07:45:47;101265.41;;;24.36;55.24
71476;BME280;59286;59.274;17.974;2022-08-18T07:48:29;101283.47;;;24.46;53.89
71476;BME280;59286;59.274;17.974;2022-08-18T07:57:46;101292.22;;;24.83;53.58
71476;BME280;59286;59.274;17.974;2022-08-18T08:00:24;101301.50;;;24.97;52.63
71476;BME280;59286;59.274;17.974;2022-08-18T08:05:49;101286.53;;;24.99;53.01
71476;BME280;59286;59.274;17.974;2022-08-18T08:08:28;101306.91;;;25.04;53.32
71476;BME280;59286;59.274;17.974;2022-08-18T08:11:07;101285.19;;;25.30;52.82
71476;BME280;59286;59.274;17.974;2022-08-18T08:13:47;101296.31;;;25.32;52.36
71476;BME280;59286;59.274;17.974;2022-08-18T08:16:25;101267.09;;;25.20;52.81
71476;BME280;59286;59.274;17.974;2022-08-18T08:19:04;101302.56;;;25.50;52.22
71476;BME280;59286;59.274;17.974;2022-08-18T08:21:40;101269.53;;;25.39;50.95
71476;BME280;59286;59.274;17.974;2022-08-18T08:24:28;101266.47;;;25.40;50.59
71476;BME280;59286;59.274;17.974;2022-08-18T08:29:38;101297.94;;;25.43;51.76
71476;BME280;59286;59.274;17.974;2022-08-18T08:32:32;101248.63;;;25.01;51.07
71476;BME280;59286;59.274;17.974;2022-08-18T08:35:07;101246.41;;;25.17;52.74
71476;BME280;59286;59.274;17.974;2022-08-18T08:37:41;101267.94;;;25.31;51.91
71476;BME280;59286;59.274;17.974;2022-08-18T08:40:26;101246.03;;;25.22;52.37
71476;BME280;59286;59.274;17.974;2022-08-18T08:42:58;101249.91;;;25.31;53.39
71476;BME280;59286;59.274;17.974;2022-08-18T08:49:10;101261.03;;;25.30;51.62
71476;BME280;59286;59.274;17.974;2022-08-18T08:52:00;101280.00;;;25.68;51.44
71476;BME280;59286;59.274;17.974;2022-08-18T08:54:35;101260.06;;;25.66;51.58
71476;BME280;59286;59.274;17.974;2022-08-18T08:57:02;101278.88;;;25.83;50.96
71476;BME280;59286;59.274;17.974;2022-08-18T08:59:29;101272.72;;;25.83;51.50
71476;BME280;59286;59.274;17.974;2022-08-18T09:04:55;101250.84;;;25.77;50.74
71476;BME280;59286;59.274;17.974;2022-08-18T09:07:38;101260.84;;;25.91;50.46
71476;BME280;59286;59.274;17.974;2022-08-18T09:15:37;101273.47;;;25.66;51.56
71476;BME280;59286;59.274;17.974;2022-08-18T09:23:46;101236.28;;;25.75;51.03
71476;BME280;59286;59.274;17.974;2022-08-18T09:29:15;101245.91;;;26.01;51.07
71476;BME280;59286;59.274;17.974;2022-08-18T09:31:44;101254.00;;;26.11;52.29
71476;BME280;59286;59.274;17.974;2022-08-18T09:37:03;101253.56;;;26.02;52.07
71476;BME280;59286;59.274;17.974;2022-08-18T09:39:38;101235.91;;;25.80;52.70
71476;BME280;59286;59.274;17.974;2022-08-18T09:42:55;101247.03;;;25.96;52.89
71476;BME280;59286;59.274;17.974;2022-08-18T09:52:51;101219.06;;;26.25;51.93
71476;BME280;59286;59.274;17.974;2022-08-18T09:57:43;101245.94;;;26.60;51.40
71476;BME280;59286;59.274;17.974;2022-08-18T10:07:41;101218.28;;;26.28;50.80
71476;BME280;59286;59.274;17.974;2022-08-18T10:13:03;101249.00;;;26.41;52.27
71476;BME280;59286;59.274;17.974;2022-08-18T10:18:37;101242.09;;;26.54;51.88
71476;BME280;59286;59.274;17.974;2022-08-18T10:21:10;101242.47;;;26.60;51.58
71476;BME280;59286;59.274;17.974;2022-08-18T10:23:49;101231.72;;;26.46;51.09
71476;BME280;59286;59.274;17.974;2022-08-18T10:29:08;101228.63;;;26.79;51.74
71476;BME280;59286;59.274;17.974;2022-08-18T10:37:31;101206.34;;;26.57;52.42
71476;BME280;59286;59.274;17.974;2022-08-18T10:40:13;101219.00;;;26.74;50.83
71476;BME280;59286;59.274;17.974;2022-08-18T10:42:46;101231.31;;;26.83;51.58
71476;BME280;59286;59.274;17.974;2022-08-18T10:45:36;101227.81;;;26.86;51.71
71476;BME280;59286;59.274;17.974;2022-08-18T10:48:18;101208.97;;;26.86;50.86
71476;BME280;59286;59.274;17.974;2022-08-18T10:55:59;101208.56;;;27.01;50.46
71476;BME280;59286;59.274;17.974;2022-08-18T11:01:23;101222.72;;;27.16;49.76
71476;BME280;59286;59.274;17.974;2022-08-18T11:04:07;101218.16;;;26.99;50.98
71476;BME280;59286;59.274;17.974;2022-08-18T11:06:41;101196.31;;;26.83;49.88
71476;BME280;59286;59.274;17.974;2022-08-18T11:09:10;101193.28;;;26.66;49.79
71476;BME280;59286;59.274;17.974;2022-08-18T11:11:50;101223.56;;;26.95;49.67
71476;BME280;59286;59.274;17.974;2022-08-18T11:19:43;101183.28;;;26.74;49.54
71476;BME280;59286;59.274;17.974;2022-08-18T11:22:28;101203.97;;;26.95;51.12
71476;BME280;59286;59.274;17.974;2022-08-18T11:24:53;101192.00;;;27.06;49.93
71476;BME280;59286;59.274;17.974;2022-08-18T11:27:22;101195.84;;;27.05;49.12
71476;BME280;59286;59.274;17.974;2022-08-18T11:29:49;101199.03;;;26.79;49.34
71476;BME280;59286;59.274;17.974;2022-08-18T11:32:26;101225.50;;;26.88;50.09
71476;BME280;59286;59.274;17.974;2022-08-18T11:37:44;101235.41;;;27.15;49.91
71476;BME280;59286;59.274;17.974;2022-08-18T11:40:19;101233.88;;;27.18;50.70
71476;BME280;59286;59.274;17.974;2022-08-18T11:42:57;101241.91;;;27.28;51.45
71476;BME280;59286;59.274;17.974;2022-08-18T11:45:26;101242.28;;;27.27;51.09
71476;BME280;59286;59.274;17.974;2022-08-18T11:48:10;101232.00;;;27.01;52.14
71476;BME280;59286;59.274;17.974;2022-08-18T11:58:47;101215.56;;;26.81;53.04
71476;BME280;59286;59.274;17.974;2022-08-18T12:12:13;101226.31;;;26.70;53.02
71476;BME280;59286;59.274;17.974;2022-08-18T12:17:24;101228.19;;;26.95;52.92
71476;BME280;59286;59.274;17.974;2022-08-18T12:19:51;101192.88;;;26.68;52.65
71476;BME280;59286;59.274;17.974;2022-08-18T12:22:22;101222.47;;;26.68;52.97
71476;BME280;59286;59.274;17.974;2022-08-18T12:24:48;101195.97;;;26.52;53.13
71476;BME280;59286;59.274;17.974;2022-08-18T12:27:17;101225.16;;;26.78;52.54
71476;BME280;59286;59.274;17.974;2022-08-18T12:29:43;101192.13;;;26.57;53.30
71476;BME280;59286;59.274;17.974;2022-08-18T12:32:09;101186.38;;;26.44;53.04
71476;BME280;59286;59.274;17.974;2022-08-18T12:34:35;101217.47;;;26.66;53.57
71476;BME280;59286;59.274;17.974;2022-08-18T12:37:01;101219.41;;;26.62;53.14
71476;BME280;59286;59.274;17.974;2022-08-18T12:39:28;101189.47;;;26.39;53.18
71476;BME280;59286;59.274;17.974;2022-08-18T12:41:54;101189.47;;;26.32;53.77
71476;BME280;59286;59.274;17.974;2022-08-18T12:44:20;101206.75;;;26.45;53.12
71476;BME280;59286;59.274;17.974;2022-08-18T12:46:46;101192.53;;;26.48;53.53
71476;BME280;59286;59.274;17.974;2022-08-18T12:49:17;101184.81;;;26.54;52.79
71476;BME280;59286;59.274;17.974;2022-08-18T12:51:43;101215.19;;;26.68;52.96
71476;BME280;59286;59.274;17.974;2022-08-18T12:54:09;101208.25;;;26.64;53.42
71476;BME280;59286;59.274;17.974;2022-08-18T12:56:35;101200.56;;;26.62;52.88
71476;BME280;59286;59.274;17.974;2022-08-18T12:59:03;101198.28;;;26.64;53.21
71476;BME280;59286;59.274;17.974;2022-08-18T13:01:30;101181.38;;;26.46;52.77
71476;BME280;59286;59.274;17.974;2022-08-18T13:03:56;101183.69;;;26.44;53.06
71476;BME280;59286;59.274;17.974;2022-08-18T13:06:22;101199.81;;;26.58;53.17
71476;BME280;59286;59.274;17.974;2022-08-18T13:08:51;101165.28;;;26.39;53.56
71476;BME280;59286;59.274;17.974;2022-08-18T13:11:18;101174.88;;;26.40;53.03
71476;BME280;59286;59.274;17.974;2022-08-18T13:13:44;101201.34;;;26.56;52.62
71476;BME280;59286;59.274;17.974;2022-08-18T13:16:12;101182.94;;;26.47;52.65
71476;BME280;59286;59.274;17.974;2022-08-18T13:18:39;101163.75;;;26.38;52.88
71476;BME280;59286;59.274;17.974;2022-08-18T13:21:10;101169.84;;;26.53;52.11
71476;BME280;59286;59.274;17.974;2022-08-18T13:23:37;101188.28;;;26.75;52.26
71476;BME280;59286;59.274;17.974;2022-08-18T13:26:04;101171.38;;;26.61;52.43
71476;BME280;59286;59.274;17.974;2022-08-18T13:28:32;101199.03;;;26.75;52.33
71476;BME280;59286;59.274;17.974;2022-08-18T13:30:58;101159.13;;;26.32;52.22
71476;BME280;59286;59.274;17.974;2022-08-18T13:33:24;101186.81;;;26.29;53.25
71476;BME280;59286;59.274;17.974;2022-08-18T13:35:51;101202.19;;;26.14;53.01
71476;BME280;59286;59.274;17.974;2022-08-18T13:38:17;101171.41;;;25.80;54.93
71476;BME280;59286;59.274;17.974;2022-08-18T13:40:45;101203.31;;;25.92;55.12
71476;BME280;59286;59.274;17.974;2022-08-18T13:43:14;101206.72;;;25.89;56.08
71476;BME280;59286;59.274;17.974;2022-08-18T13:45:40;101184.84;;;25.66;57.13
71476;BME280;59286;59.274;17.974;2022-08-18T13:48:09;101190.97;;;25.66;57.19
71476;BME280;59286;59.274;17.974;2022-08-18T13:50:36;101182.91;;;25.63;57.70
71476;BME280;59286;59.274;17.974;2022-08-18T13:53:05;101171.00;;;25.57;57.71
71476;BME280;59286;59.274;17.974;2022-08-18T13:55:33;101207.47;;;25.65;57.91
71476;BME280;59286;59.274;17.974;2022-08-18T13:57:58;101188.22;;;25.42;58.17
71476;BME280;59286;59.274;17.974;2022-08-18T14:00:24;101212.03;;;25.54;58.35
71476;BME280;59286;59.274;17.974;2022-08-18T14:02:50;101189.00;;;25.46;57.99
71476;BME280;59286;59.274;17.974;2022-08-18T14:05:21;101200.16;;;25.55;57.95
71476;BME280;59286;59.274;17.974;2022-08-18T14:07:47;101173.28;;;25.41;57.55
71476;BME280;59286;59.274;17.974;2022-08-18T14:10:14;101197.50;;;25.69;57.28
71476;BME280;59286;59.274;17.974;2022-08-18T14:12:41;101179.44;;;25.48;57.46
71476;BME280;59286;59.274;17.974;2022-08-18T14:15:10;101169.81;;;25.44;57.76
71476;BME280;59286;59.274;17.974;2022-08-18T14:17:38;101162.88;;;25.36;57.60
71476;BME280;59286;59.274;17.974;2022-08-18T14:20:04;101190.56;;;25.64;57.37
71476;BME280;59286;59.274;17.974;2022-08-18T14:22:50;101166.78;;;25.52;57.20
71476;BME280;59286;59.274;17.974;2022-08-18T14:25:34;101167.88;;;25.37;56.92
71476;BME280;59286;59.274;17.974;2022-08-18T14:28:18;101181.28;;;25.34;57.80
71476;BME280;59286;59.274;17.974;2022-08-18T14:30:45;101149.72;;;24.95;58.28
71476;BME280;59286;59.274;17.974;2022-08-18T14:33:11;101173.47;;;24.93;58.84
71476;BME280;59286;59.274;17.974;2022-08-18T14:35:39;101170.34;;;24.81;58.84
71476;BME280;59286;59.274;17.974;2022-08-18T14:38:05;101183.38;;;24.82;59.30
71476;BME280;59286;59.274;17.974;2022-08-18T14:40:32;101167.19;;;24.68;59.55
71476;BME280;59286;59.274;17.974;2022-08-18T14:42:58;101196.78;;;24.79;59.30
71476;BME280;59286;59.274;17.974;2022-08-18T14:45:24;101190.94;;;24.70;59.76
71476;BME280;59286;59.274;17.974;2022-08-18T14:47:50;101167.84;;;24.51;60.62
71476;BME280;59286;59.274;17.974;2022-08-18T14:50:19;101191.69;;;24.67;61.00
71476;BME280;59286;59.274;17.974;2022-08-18T14:52:44;101190.25;;;24.76;60.66
71476;BME280;59286;59.274;17.974;2022-08-18T14:55:10;101176.31;;;24.57;60.60
71476;BME280;59286;59.274;17.974;2022-08-18T14:57:38;101170.50;;;24.44;60.99
71476;BME280;59286;59.274;17.974;2022-08-18T15:00:10;101196.53;;;24.47;61.25
71476;BME280;59286;59.274;17.974;2022-08-18T15:02:38;101178.38;;;24.23;61.41
71476;BME280;59286;59.274;17.974;2022-08-18T15:05:06;101204.16;;;24.42;61.93